Terminal Aerodrome Forecast
Issued by NWS

Home | Current Version | Previous Version | Text Only | Print | Product List | Glossary On
Versions: 1 2 3 4 5 6 7 8 9 10 11 12 13 14 15 16 17 18 19 20 21 22 23 24 25 26 27 28 29 30 31 32 33 34
000
FTUS45 KGJT 292339
TAFASE
TAF
KASE 292339Z 3000/3024 32008KT P6SM VCTS SCT070CB BKN100
     FM300200 20005KT P6SM SCT090 BKN140
     FM301300 VRB02KT P6SM FEW250
     FM301700 36006KT P6SM SCT250
     FM302000 33008G16KT P6SM SCT100 SCT200=

USA.gov is the U.S. government's official web portal to all federal, state and local government web resources and services.